createdAt,value
2019-06-26T00:01:37.755Z,13.27
2019-06-26T00:04:05.394Z,13.33
2019-06-26T00:06:33.298Z,14.00
2019-06-26T00:09:00.850Z,13.60
2019-06-26T00:11:28.429Z,14.53
2019-06-26T00:13:55.654Z,15.13
2019-06-26T00:16:22.871Z,14.73
2019-06-26T00:18:50.356Z,13.67
2019-06-26T00:21:17.961Z,14.10
2019-06-26T00:23:45.180Z,13.77
2019-06-26T00:26:12.416Z,13.17
2019-06-26T00:28:39.633Z,13.27
2019-06-26T00:31:06.883Z,13.87
2019-06-26T00:33:34.097Z,12.90
2019-06-26T00:36:01.337Z,14.13
2019-06-26T00:38:29.205Z,13.87
2019-06-26T00:40:56.827Z,14.43
2019-06-26T00:43:24.428Z,14.23
2019-06-26T00:45:52.105Z,16.57
2019-06-26T00:48:19.431Z,14.97
2019-06-26T00:50:46.774Z,15.47
2019-06-26T00:53:14.286Z,16.13
2019-06-26T00:55:42.018Z,15.37
2019-06-26T00:58:09.242Z,15.57
2019-06-26T01:00:42.406Z,17.37
2019-06-26T01:03:09.918Z,15.80
2019-06-26T01:05:37.493Z,16.23
2019-06-26T01:08:04.808Z,16.43
2019-06-26T01:10:32.413Z,15.90
2019-06-26T01:12:59.950Z,15.60
2019-06-26T01:15:27.265Z,19.00
2019-06-26T01:17:54.489Z,17.07
2019-06-26T01:20:21.709Z,15.57
2019-06-26T01:22:49.264Z,17.23
2019-06-26T01:25:17.130Z,15.90
2019-06-26T01:27:44.366Z,18.07
2019-06-26T01:30:12.350Z,17.17
2019-06-26T01:32:40.001Z,16.43
2019-06-26T01:35:07.669Z,17.13
2019-06-26T01:37:34.977Z,17.27
2019-06-26T01:40:02.218Z,16.70
2019-06-26T01:42:29.437Z,17.03
2019-06-26T01:44:57.295Z,17.07
2019-06-26T01:47:24.525Z,16.83
2019-06-26T01:49:51.789Z,17.87
2019-06-26T01:52:19.092Z,17.17
2019-06-26T01:54:46.347Z,16.70
2019-06-26T01:57:13.713Z,18.97
2019-06-26T01:59:40.945Z,18.37
2019-06-26T02:02:08.281Z,17.73
2019-06-26T02:04:35.505Z,18.83
2019-06-26T02:07:02.768Z,16.43
2019-06-26T02:09:30.110Z,18.70
2019-06-26T02:12:00.420Z,18.30
2019-06-26T02:14:31.377Z,17.83
2019-06-26T02:16:56.405Z,18.13
2019-06-26T02:19:23.621Z,18.37
2019-06-26T02:21:50.865Z,19.90
2019-06-26T02:24:18.750Z,18.63
2019-06-26T02:26:46.049Z,18.70
2019-06-26T02:29:13.661Z,18.47
2019-06-26T02:31:40.918Z,18.67
2019-06-26T02:34:08.319Z,17.47
2019-06-26T02:36:36.137Z,18.27
2019-06-26T02:39:05.749Z,19.17
2019-06-26T02:41:32.998Z,19.63
2019-06-26T02:44:00.233Z,18.80
2019-06-26T02:46:27.454Z,19.70
2019-06-26T02:48:55.072Z,20.33
2019-06-26T02:51:22.616Z,17.77
2019-06-26T02:53:50.292Z,19.13
2019-06-26T02:56:17.837Z,19.10
2019-06-26T02:58:45.157Z,20.80
2019-06-26T03:01:12.739Z,20.13
2019-06-26T03:03:40.069Z,23.37
2019-06-26T03:06:07.562Z,24.13
2019-06-26T03:08:34.782Z,23.40
2019-06-26T03:11:01.999Z,20.50
2019-06-26T03:13:29.227Z,21.30
2019-06-26T03:15:56.445Z,22.40
2019-06-26T03:18:24.026Z,21.50
2019-06-26T03:20:54.529Z,22.00
2019-06-26T03:23:21.797Z,22.30
2019-06-26T03:25:49.110Z,22.40
2019-06-26T03:28:16.732Z,24.00
2019-06-26T03:30:44.038Z,21.93
2019-06-26T03:33:11.672Z,22.17
2019-06-26T03:35:40.817Z,20.70
2019-06-26T03:38:08.475Z,20.90
2019-06-26T03:40:35.789Z,23.03
2019-06-26T03:43:03.448Z,21.30
2019-06-26T03:45:30.791Z,25.20
2019-06-26T03:47:58.162Z,23.40
2019-06-26T03:50:25.845Z,26.40
2019-06-26T03:52:53.347Z,23.70
2019-06-26T03:55:20.995Z,23.63
2019-06-26T03:57:48.392Z,24.47
2019-06-26T04:00:21.853Z,22.70
2019-06-26T04:02:49.106Z,23.63
2019-06-26T04:05:16.341Z,23.70
2019-06-26T04:07:43.602Z,26.33
2019-06-26T04:10:10.914Z,24.23
2019-06-26T04:12:38.157Z,23.97
2019-06-26T04:15:05.936Z,25.10
2019-06-26T04:17:33.838Z,23.43
2019-06-26T04:20:01.455Z,23.83
2019-06-26T04:22:29.381Z,24.37
2019-06-26T04:24:56.608Z,21.90
2019-06-26T04:27:24.229Z,23.77
2019-06-26T04:29:51.825Z,25.23
2019-06-26T04:32:19.497Z,22.67
2019-06-26T04:34:47.049Z,22.80
2019-06-26T04:37:14.617Z,23.77
2019-06-26T04:39:41.847Z,22.07
2019-06-26T04:42:09.091Z,25.93
2019-06-26T04:44:36.414Z,24.63
2019-06-26T04:47:03.636Z,22.30
2019-06-26T04:49:30.902Z,23.00
2019-06-26T04:51:58.220Z,21.20
2019-06-26T04:54:25.449Z,20.67
2019-06-26T04:56:52.770Z,22.57
2019-06-26T04:59:20.133Z,23.17
2019-06-26T05:01:47.757Z,23.40
2019-06-26T05:04:14.986Z,22.83
2019-06-26T05:06:42.562Z,22.50
2019-06-26T05:09:10.237Z,21.93
2019-06-26T05:11:37.470Z,21.83
2019-06-26T05:14:04.791Z,22.57
2019-06-26T05:16:32.285Z,20.77
2019-06-26T05:18:59.950Z,18.90
2019-06-26T05:21:27.509Z,19.63
2019-06-26T05:23:55.065Z,19.47
2019-06-26T05:26:22.938Z,19.30
2019-06-26T05:28:50.164Z,19.30
2019-06-26T05:31:17.768Z,20.67
2019-06-26T05:33:45.304Z,19.37
2019-06-26T05:36:12.624Z,19.07
2019-06-26T05:38:39.988Z,19.50
2019-06-26T05:41:07.269Z,20.03
2019-06-26T05:43:34.584Z,19.50
2019-06-26T05:46:02.093Z,19.70
2019-06-26T05:48:29.313Z,20.90
2019-06-26T05:50:56.637Z,19.90
2019-06-26T05:53:24.134Z,20.37
2019-06-26T05:55:52.021Z,18.97
2019-06-26T05:58:19.414Z,19.20
2019-06-26T06:00:46.973Z,20.77
2019-06-26T06:03:14.214Z,19.17
2019-06-26T06:05:41.541Z,18.70
2019-06-26T06:08:09.182Z,20.97
2019-06-26T06:10:36.441Z,20.23
2019-06-26T06:13:03.737Z,20.27
2019-06-26T06:15:31.347Z,20.17
2019-06-26T06:17:58.661Z,19.90
2019-06-26T06:20:37.881Z,20.37
2019-06-26T06:23:05.902Z,20.40
2019-06-26T06:25:33.137Z,20.47
2019-06-26T06:28:00.383Z,20.77
2019-06-26T06:30:27.968Z,21.47
2019-06-26T06:32:55.543Z,21.10
2019-06-26T06:35:22.784Z,20.00
2019-06-26T06:37:50.282Z,19.30
2019-06-26T06:40:18.017Z,19.10
2019-06-26T06:42:45.557Z,20.30
2019-06-26T06:45:14.190Z,18.77
2019-06-26T06:47:44.429Z,18.40
2019-06-26T06:50:12.225Z,18.73
2019-06-26T06:52:39.787Z,17.43
2019-06-26T06:55:07.017Z,17.43
2019-06-26T06:57:34.603Z,17.87
2019-06-26T07:00:01.840Z,17.47
2019-06-26T07:02:29.510Z,16.13
2019-06-26T07:04:56.869Z,17.13
2019-06-26T07:07:24.331Z,17.57
2019-06-26T07:09:51.645Z,18.20
2019-06-26T07:12:20.898Z,19.03
2019-06-26T07:14:48.010Z,20.50
2019-06-26T07:17:20.501Z,17.07
2019-06-26T07:19:44.738Z,17.30
2019-06-26T07:22:12.349Z,17.03
2019-06-26T07:24:39.662Z,16.77
2019-06-26T07:27:06.982Z,16.57
2019-06-26T07:29:34.305Z,15.67
2019-06-26T07:32:01.433Z,15.53
2019-06-26T07:34:28.664Z,15.13
2019-06-26T07:36:55.977Z,15.43
2019-06-26T07:39:23.615Z,16.67
2019-06-26T07:41:50.981Z,15.73
2019-06-26T07:44:18.735Z,16.63
2019-06-26T07:46:46.297Z,15.80
2019-06-26T07:49:13.523Z,16.50
2019-06-26T07:51:40.883Z,14.73
2019-06-26T07:54:08.214Z,15.60
2019-06-26T07:56:36.163Z,15.03
2019-06-26T07:59:03.781Z,15.57
2019-06-26T08:01:31.106Z,14.30
2019-06-26T08:03:58.402Z,14.30
2019-06-26T08:06:25.666Z,13.77
2019-06-26T08:08:53.297Z,15.53
2019-06-26T08:11:20.925Z,12.60
2019-06-26T08:13:48.471Z,12.07
2019-06-26T08:16:16.077Z,11.47
2019-06-26T08:18:43.331Z,10.10
2019-06-26T08:21:12.501Z,9.60
2019-06-26T08:23:40.089Z,9.83
2019-06-26T08:26:07.833Z,9.37
2019-06-26T08:28:35.436Z,8.37
2019-06-26T08:31:02.762Z,8.80
2019-06-26T08:33:30.062Z,11.60
2019-06-26T08:35:57.293Z,8.43
2019-06-26T08:38:24.542Z,10.37
2019-06-26T08:40:51.781Z,9.07
2019-06-26T08:43:19.126Z,9.53
2019-06-26T08:45:46.683Z,11.88
2019-06-26T08:48:23.141Z,8.48
2019-06-26T08:50:43.205Z,9.63
2019-06-26T08:53:10.662Z,8.90
2019-06-26T08:55:37.965Z,8.43
2019-06-26T08:58:05.893Z,8.47
2019-06-26T09:00:33.355Z,9.30
2019-06-26T09:03:00.703Z,11.13
2019-06-26T09:05:28.281Z,9.00
2019-06-26T09:07:55.631Z,10.07
2019-06-26T09:10:22.942Z,8.63
2019-06-26T09:12:50.179Z,12.20
2019-06-26T09:15:17.501Z,11.33
2019-06-26T09:17:44.729Z,8.27
2019-06-26T09:20:15.039Z,10.27
2019-06-26T09:22:42.263Z,9.20
2019-06-26T09:25:21.583Z,8.47
2019-06-26T09:27:39.080Z,8.33
2019-06-26T09:30:06.782Z,9.70
2019-06-26T09:32:34.017Z,9.23
2019-06-26T09:35:01.404Z,9.13
2019-06-26T09:37:28.688Z,9.03
2019-06-26T09:39:55.961Z,8.50
2019-06-26T09:42:23.249Z,15.03
2019-06-26T09:44:50.866Z,9.17
2019-06-26T09:47:18.098Z,10.23
2019-06-26T09:49:46.090Z,7.83
2019-06-26T09:52:13.666Z,7.30
2019-06-26T09:54:40.902Z,11.20
2019-06-26T09:57:08.266Z,7.93
2019-06-26T09:59:35.494Z,7.63
2019-06-26T10:02:02.890Z,7.37
2019-06-26T10:04:30.461Z,7.83
2019-06-26T10:06:58.187Z,7.07
2019-06-26T10:09:25.841Z,7.22
2019-06-26T10:11:53.081Z,8.33
2019-06-26T10:14:20.653Z,8.23
2019-06-26T10:16:48.213Z,7.17
2019-06-26T10:19:15.448Z,9.83
2019-06-26T10:21:43.125Z,6.97
2019-06-26T10:24:10.362Z,8.10
2019-06-26T10:26:37.952Z,8.95
2019-06-26T10:29:05.414Z,9.58
2019-06-26T10:31:32.646Z,13.72
2019-06-26T10:33:59.994Z,6.55
2019-06-26T10:36:27.557Z,6.70
2019-06-26T10:38:55.263Z,7.95
2019-06-26T10:41:22.562Z,11.25
2019-06-26T10:43:50.492Z,8.50
2019-06-26T10:46:17.818Z,8.28
2019-06-26T10:48:45.453Z,6.87
2019-06-26T10:51:12.687Z,6.95
2019-06-26T10:53:40.167Z,8.10
2019-06-26T10:56:07.559Z,5.78
2019-06-26T10:58:34.883Z,6.17
2019-06-26T11:01:03.520Z,10.60
2019-06-26T11:03:30.826Z,5.47
2019-06-26T11:05:58.227Z,7.72
2019-06-26T11:08:25.456Z,8.90
2019-06-26T11:10:52.769Z,6.47
2019-06-26T11:13:20.663Z,10.40
2019-06-26T11:15:48.477Z,5.62
2019-06-26T11:18:15.922Z,5.85
2019-06-26T11:20:43.195Z,8.85
2019-06-26T11:23:10.512Z,8.85
2019-06-26T11:25:37.821Z,8.75
2019-06-26T11:28:05.050Z,7.65
2019-06-26T11:30:32.326Z,7.47
2019-06-26T11:32:59.673Z,7.17
2019-06-26T11:35:26.882Z,9.25
2019-06-26T11:37:54.391Z,6.83
2019-06-26T11:40:21.950Z,6.20
2019-06-26T11:42:49.277Z,12.05
2019-06-26T11:45:17.029Z,8.05
2019-06-26T11:47:45.939Z,9.60
2019-06-26T11:50:14.075Z,6.10
2019-06-26T11:52:41.724Z,8.75
2019-06-26T11:55:11.000Z,9.83
2019-06-26T11:57:38.648Z,7.90
2019-06-26T12:00:09.183Z,8.43
2019-06-26T12:02:36.847Z,7.35
2019-06-26T12:05:04.934Z,7.55
2019-06-26T12:07:32.175Z,7.58
2019-06-26T12:09:59.650Z,9.25
2019-06-26T12:12:27.177Z,11.10
2019-06-26T12:14:54.485Z,9.80
2019-06-26T12:17:22.014Z,6.20
2019-06-26T12:19:49.491Z,8.53
2019-06-26T12:22:17.006Z,6.92
2019-06-26T12:24:44.398Z,8.25
2019-06-26T12:27:12.437Z,10.25
2019-06-26T12:29:40.097Z,9.28
2019-06-26T12:32:07.536Z,7.35
2019-06-26T12:34:35.206Z,7.75
2019-06-26T12:37:02.507Z,8.10
2019-06-26T12:39:29.799Z,9.03
2019-06-26T12:41:57.151Z,7.95
2019-06-26T12:44:24.450Z,10.25
2019-06-26T12:46:51.755Z,10.82
2019-06-26T12:49:18.989Z,7.85
2019-06-26T12:51:46.239Z,7.70
2019-06-26T12:54:13.463Z,8.58
2019-06-26T12:56:41.094Z,6.67
2019-06-26T12:59:08.342Z,8.55
2019-06-26T13:01:35.670Z,6.85
2019-06-26T13:04:03.253Z,12.47
2019-06-26T13:06:30.948Z,9.93
2019-06-26T13:08:58.603Z,8.93
2019-06-26T13:11:25.893Z,9.28
2019-06-26T13:14:02.684Z,12.90
2019-06-26T13:16:22.359Z,6.72
2019-06-26T13:18:49.964Z,7.95
2019-06-26T13:21:17.753Z,7.50
2019-06-26T13:23:45.436Z,12.10
2019-06-26T13:26:12.881Z,11.08
2019-06-26T13:28:40.218Z,10.82
2019-06-26T13:31:08.118Z,8.53
2019-06-26T13:33:35.448Z,11.03
2019-06-26T13:36:02.856Z,12.58
2019-06-26T13:38:30.538Z,7.75
2019-06-26T13:40:58.586Z,14.70
2019-06-26T13:43:25.906Z,10.70
2019-06-26T13:45:53.509Z,11.48
2019-06-26T13:48:21.370Z,14.05
2019-06-26T13:50:49.135Z,9.55
2019-06-26T13:53:16.390Z,9.40
2019-06-26T13:55:43.781Z,11.25
2019-06-26T13:58:11.016Z,10.15
2019-06-26T14:00:38.860Z,10.35
2019-06-26T14:03:06.422Z,11.57
2019-06-26T14:05:34.487Z,11.53
2019-06-26T14:08:01.722Z,14.10
2019-06-26T14:10:29.038Z,8.35
2019-06-26T14:12:56.294Z,12.70
2019-06-26T14:15:24.389Z,13.83
2019-06-26T14:17:51.790Z,9.45
2019-06-26T14:20:19.349Z,8.75
2019-06-26T14:22:46.987Z,10.63
2019-06-26T14:25:14.375Z,11.80
2019-06-26T14:27:41.843Z,10.13
2019-06-26T14:30:10.249Z,8.78
2019-06-26T14:32:37.473Z,10.38
2019-06-26T14:35:05.268Z,12.13
2019-06-26T14:37:32.578Z,8.55
2019-06-26T14:40:00.418Z,10.43
2019-06-26T14:42:27.769Z,12.53
2019-06-26T14:44:55.010Z,9.25
2019-06-26T14:47:22.684Z,13.45
2019-06-26T14:49:50.238Z,8.70
2019-06-26T14:52:17.538Z,10.93
2019-06-26T14:54:44.766Z,12.23
2019-06-26T14:57:12.429Z,13.25
2019-06-26T14:59:40.084Z,9.45
2019-06-26T15:02:07.734Z,10.68
2019-06-26T15:04:35.391Z,11.80
2019-06-26T15:07:02.912Z,13.60
2019-06-26T15:09:30.250Z,11.08
2019-06-26T15:11:57.734Z,10.23
2019-06-26T15:14:24.966Z,12.70
2019-06-26T15:16:52.981Z,11.83
2019-06-26T15:19:20.283Z,11.97
2019-06-26T15:21:57.967Z,9.18
2019-06-26T15:24:16.945Z,10.45
2019-06-26T15:26:44.871Z,10.23
2019-06-26T15:29:12.518Z,12.73
2019-06-26T15:31:39.854Z,9.78
2019-06-26T15:34:07.561Z,10.60
2019-06-26T15:36:34.904Z,9.43
2019-06-26T15:39:04.300Z,12.55
2019-06-26T15:41:31.949Z,8.73
2019-06-26T15:43:59.546Z,13.00
2019-06-26T15:46:26.898Z,10.70
2019-06-26T15:48:54.185Z,8.20
2019-06-26T15:51:21.437Z,13.43
2019-06-26T15:53:48.661Z,12.00
2019-06-26T15:56:15.991Z,11.48
2019-06-26T15:58:43.220Z,9.38
2019-06-26T16:01:10.808Z,9.20
2019-06-26T16:03:38.215Z,10.48
2019-06-26T16:06:05.438Z,10.48
2019-06-26T16:08:32.786Z,14.78
2019-06-26T16:11:00.016Z,9.60
2019-06-26T16:13:28.519Z,10.90
2019-06-26T16:15:55.841Z,8.48
2019-06-26T16:18:34.427Z,10.70
2019-06-26T16:21:01.680Z,12.00
2019-06-26T16:23:29.018Z,9.30
2019-06-26T16:25:56.325Z,8.70
2019-06-26T16:28:23.871Z,11.20
2019-06-26T16:30:51.112Z,8.33
2019-06-26T16:33:18.349Z,15.70
2019-06-26T16:35:45.598Z,14.43
2019-06-26T16:38:12.904Z,15.40
2019-06-26T16:40:40.185Z,9.53
2019-06-26T16:43:07.794Z,12.53
2019-06-26T16:45:35.026Z,8.83
2019-06-26T16:48:02.300Z,10.60
2019-06-26T16:50:30.630Z,13.13
2019-06-26T16:52:58.329Z,13.80
2019-06-26T16:55:27.231Z,13.78
2019-06-26T16:57:54.894Z,9.17
2019-06-26T17:00:22.558Z,9.27
2019-06-26T17:02:50.008Z,11.22
2019-06-26T17:05:17.313Z,10.97
2019-06-26T17:07:44.609Z,10.03
2019-06-26T17:10:12.049Z,13.13
2019-06-26T17:12:39.628Z,8.15
2019-06-26T17:15:07.909Z,11.65
2019-06-26T17:17:35.306Z,8.30
2019-06-26T17:20:03.158Z,11.67
2019-06-26T17:22:30.849Z,16.12
2019-06-26T17:24:58.442Z,10.10
2019-06-26T17:27:26.026Z,11.60
2019-06-26T17:29:53.265Z,10.48
2019-06-26T17:32:21.031Z,8.97
2019-06-26T17:34:48.987Z,12.23
2019-06-26T17:37:16.217Z,8.23
2019-06-26T17:39:43.521Z,15.60
2019-06-26T17:42:11.046Z,11.85
2019-06-26T17:44:38.610Z,9.70
2019-06-26T17:47:05.845Z,10.70
2019-06-26T17:49:33.489Z,7.97
2019-06-26T17:52:01.110Z,12.07
2019-06-26T17:54:28.357Z,11.17
2019-06-26T17:56:55.582Z,8.97
2019-06-26T17:59:23.097Z,12.40
2019-06-26T18:01:50.456Z,13.70
2019-06-26T18:04:17.754Z,9.57
2019-06-26T18:06:45.065Z,12.33
2019-06-26T18:09:12.717Z,12.53
2019-06-26T18:11:39.986Z,11.13
2019-06-26T18:14:07.286Z,10.67
2019-06-26T18:16:34.830Z,13.80
2019-06-26T18:19:02.067Z,9.57
2019-06-26T18:21:29.801Z,11.60
2019-06-26T18:23:58.715Z,9.77
2019-06-26T18:26:26.397Z,11.33
2019-06-26T18:28:53.697Z,13.13
2019-06-26T18:31:20.921Z,14.73
2019-06-26T18:33:48.154Z,10.73
2019-06-26T18:36:15.465Z,11.03
2019-06-26T18:38:43.477Z,14.40
2019-06-26T18:41:11.039Z,11.03
2019-06-26T18:43:38.697Z,10.33
2019-06-26T18:46:05.985Z,13.30
2019-06-26T18:48:33.534Z,15.93
2019-06-26T18:51:00.760Z,10.40
2019-06-26T18:53:28.530Z,14.10
2019-06-26T18:55:56.181Z,10.87
2019-06-26T18:58:23.845Z,12.83
2019-06-26T19:00:51.414Z,11.30
2019-06-26T19:03:19.070Z,13.50
2019-06-26T19:05:46.310Z,13.10
2019-06-26T19:08:13.981Z,11.33
2019-06-26T19:10:41.846Z,14.90
2019-06-26T19:13:09.435Z,11.47
2019-06-26T19:15:36.749Z,12.67
2019-06-26T19:18:04.422Z,11.33
2019-06-26T19:20:33.951Z,15.27
2019-06-26T19:23:01.134Z,16.67
2019-06-26T19:25:28.366Z,16.87
2019-06-26T19:27:55.681Z,12.20
2019-06-26T19:30:23.544Z,14.03
2019-06-26T19:32:51.414Z,12.20
2019-06-26T19:35:19.773Z,12.70
2019-06-26T19:37:48.273Z,13.17
2019-06-26T19:40:15.569Z,12.33
2019-06-26T19:42:43.082Z,12.73
2019-06-26T19:45:12.186Z,15.53
2019-06-26T19:47:39.426Z,12.50
2019-06-26T19:50:07.385Z,13.80
2019-06-26T19:52:35.265Z,14.53
2019-06-26T19:55:03.135Z,15.93
2019-06-26T19:57:30.757Z,14.17
2019-06-26T19:59:58.354Z,14.40
2019-06-26T20:02:25.914Z,14.83
2019-06-26T20:04:53.221Z,14.60
2019-06-26T20:07:20.479Z,16.43
2019-06-26T20:09:48.181Z,15.30
2019-06-26T20:12:15.737Z,16.33
2019-06-26T20:14:43.301Z,16.73
2019-06-26T20:17:10.904Z,17.67
2019-06-26T20:19:38.522Z,16.40
2019-06-26T20:22:06.081Z,16.53
2019-06-26T20:24:43.385Z,17.27
2019-06-26T20:27:02.658Z,17.57
2019-06-26T20:29:30.002Z,16.57
2019-06-26T20:31:57.342Z,18.80
2019-06-26T20:34:26.438Z,16.13
2019-06-26T20:36:54.006Z,17.43
2019-06-26T20:39:21.654Z,16.70
2019-06-26T20:41:49.214Z,19.03
2019-06-26T20:44:16.892Z,16.80
2019-06-26T20:46:44.114Z,16.13
2019-06-26T20:49:11.521Z,16.83
2019-06-26T20:51:38.785Z,16.43
2019-06-26T20:54:07.288Z,18.33
2019-06-26T20:56:34.776Z,15.87
2019-06-26T20:59:02.439Z,15.90
2019-06-26T21:01:29.670Z,16.70
2019-06-26T21:03:57.246Z,16.07
2019-06-26T21:06:24.486Z,15.93
2019-06-26T21:08:52.361Z,15.87
2019-06-26T21:11:19.927Z,16.37
2019-06-26T21:13:47.251Z,14.87
2019-06-26T21:16:14.968Z,16.00
2019-06-26T21:18:48.314Z,15.53
2019-06-26T21:21:15.571Z,14.97
2019-06-26T21:23:43.154Z,14.60
2019-06-26T21:26:10.700Z,15.53
2019-06-26T21:28:38.270Z,15.90
2019-06-26T21:31:05.645Z,16.10
2019-06-26T21:33:32.936Z,15.70
2019-06-26T21:36:00.636Z,15.37
2019-06-26T21:38:28.013Z,15.97
2019-06-26T21:40:55.361Z,16.07
2019-06-26T21:43:22.674Z,15.10
2019-06-26T21:45:49.926Z,16.17
2019-06-26T21:48:17.506Z,15.67
2019-06-26T21:50:44.778Z,15.77
2019-06-26T21:53:14.164Z,15.30
2019-06-26T21:55:41.417Z,15.00
2019-06-26T21:58:08.809Z,17.97
2019-06-26T22:00:37.062Z,15.83
2019-06-26T22:03:05.217Z,15.80
2019-06-26T22:05:32.477Z,16.07
2019-06-26T22:07:59.745Z,17.80
2019-06-26T22:10:27.399Z,16.03
2019-06-26T22:12:54.710Z,16.13
2019-06-26T22:15:22.298Z,16.43
2019-06-26T22:17:49.706Z,16.47
2019-06-26T22:20:20.281Z,16.73
2019-06-26T22:22:49.614Z,16.47
2019-06-26T22:25:24.418Z,16.63
2019-06-26T22:27:51.683Z,16.17
2019-06-26T22:30:20.842Z,16.83
2019-06-26T22:32:52.960Z,16.37
2019-06-26T22:35:20.439Z,16.13
2019-06-26T22:37:48.354Z,16.90
2019-06-26T22:40:17.507Z,18.07
2019-06-26T22:42:48.060Z,16.73
2019-06-26T22:45:15.560Z,16.60
2019-06-26T22:47:49.258Z,17.07
2019-06-26T22:50:16.763Z,17.33
2019-06-26T22:52:44.395Z,17.37
2019-06-26T22:55:12.938Z,17.53
2019-06-26T22:57:49.551Z,18.00
2019-06-26T23:00:19.416Z,17.33
2019-06-26T23:02:46.770Z,18.13
2019-06-26T23:05:14.474Z,17.67
2019-06-26T23:07:41.799Z,18.97
2019-06-26T23:10:09.567Z,18.13
2019-06-26T23:12:36.826Z,19.60
2019-06-26T23:15:05.034Z,19.40
2019-06-26T23:17:32.373Z,18.97
2019-06-26T23:20:00.031Z,18.33
2019-06-26T23:22:27.370Z,18.10
2019-06-26T23:24:54.705Z,18.80
2019-06-26T23:27:21.938Z,20.43
2019-06-26T23:29:49.167Z,19.07
2019-06-26T23:32:16.490Z,19.37
2019-06-26T23:34:43.719Z,18.80
2019-06-26T23:37:11.296Z,18.30
2019-06-26T23:39:38.523Z,20.90
2019-06-26T23:42:05.933Z,20.03
2019-06-26T23:44:33.451Z,20.00
2019-06-26T23:47:00.681Z,20.57
2019-06-26T23:49:27.828Z,20.63
2019-06-26T23:51:55.507Z,21.13
2019-06-26T23:54:23.142Z,20.07
2019-06-26T23:56:50.827Z,20.40
2019-06-26T23:59:18.382Z,21.60
